Time;durP1;ratioP1;P1;durP2;ratioP2;P2;SDS_P1;SDS_P2;PMS_P1;PMS_P2;Temp;Humidity;BMP_temperature;BMP_pressure;BME280_temperature;BME280_humidity;BME280_pressure;Samples;Min_cycle;Max_cycle;Signal;HPM_P1;HPM_P2
2023/11/26 00:00:06;;;;;;;;;;;;;;;-1.22;89.89;100021.32;106379;1262;74747;-80
2023/11/26 00:02:33;;;;;;;;;;;;;;;-1.26;90.19;100021.90;106449;1259;65046;-81
2023/11/26 00:05:00;;;;;;;;;;;;;;;-1.27;90.21;100021.83;106440;1260;124933;-80
2023/11/26 00:07:27;;;;;;;;;;;;;;;-1.30;89.98;100019.27;106419;1260;61238;-80
2023/11/26 00:09:54;;;;;;;;;;;;;;;-1.33;90.07;100021.29;106339;1265;125177;-80
2023/11/26 00:12:20;;;;;;;;;;;;;;;-1.39;89.78;100015.67;106518;1262;74648;-80
2023/11/26 00:14:47;;;;;;;;;;;;;;;-1.43;89.59;100018.85;106560;1259;64004;-79
2023/11/26 00:17:14;;;;;;;;;;;;;;;-1.45;89.71;100020.41;106224;1259;125209;-80
2023/11/26 00:19:41;;;;;;;;;;;;;;;-1.45;89.79;100027.30;106305;1259;61349;-80
2023/11/26 00:22:09;;;;;;;;;;;;;;;-1.45;89.60;100026.80;106324;1263;124967;-81
2023/11/26 00:24:36;;;;;;;;;;;;;;;-1.42;89.67;100027.30;106565;1259;75618;-81
2023/11/26 00:27:02;;;;;;;;;;;;;;;-1.38;89.72;100034.98;106542;1264;64902;-81
2023/11/26 00:29:32;;;;;;;;;;;;;;;-1.30;89.87;100041.30;106437;1259;124579;-81
2023/11/26 00:31:59;;;;;;;;;;;;;;;-1.21;90.06;100054.59;106384;1259;61183;-80
2023/11/26 00:34:25;;;;;;;;;;;;;;;-1.14;89.97;100063.94;106365;1259;126728;-81
2023/11/26 00:36:52;;;;;;;;;;;;;;;-1.09;89.67;100065.48;106445;1259;73362;-80
2023/11/26 00:39:19;;;;;;;;;;;;;;;-1.03;89.72;100063.60;106396;1263;124910;-80
2023/11/26 00:41:46;;;;;;;;;;;;;;;-0.93;89.64;100069.31;106563;1259;72462;-80
2023/11/26 00:44:12;;;;;;;;;;;;;;;-0.84;89.94;100081.62;106451;1264;61245;-80
2023/11/26 00:46:39;;;;;;;;;;;;;;;-0.78;89.67;100084.00;106468;1259;125338;-80
2023/11/26 00:49:06;;;;;;;;;;;;;;;-0.74;89.46;100082.02;106338;1261;73461;-80
2023/11/26 00:51:33;;;;;;;;;;;;;;;-0.70;89.38;100081.86;106330;1260;125232;-80
2023/11/26 00:54:00;;;;;;;;;;;;;;;-0.67;88.96;100078.10;106375;1264;71320;-79
2023/11/26 00:56:27;;;;;;;;;;;;;;;-0.67;89.03;100070.35;106492;1261;61199;-81
2023/11/26 00:58:53;;;;;;;;;;;;;;;-0.66;88.88;100069.73;106319;1263;124645;-80
2023/11/26 01:01:20;;;;;;;;;;;;;;;-0.65;89.03;100070.17;106304;1260;73484;-80
2023/11/26 01:03:47;;;;;;;;;;;;;;;-0.66;88.81;100078.20;106151;1266;125724;-79
2023/11/26 01:06:13;;;;;;;;;;;;;;;-0.66;88.90;100074.07;106307;1260;72690;-79
2023/11/26 01:08:40;;;;;;;;;;;;;;;-0.67;88.70;100072.95;106462;1260;61427;-80
2023/11/26 01:11:12;;;;;;;;;;;;;;;-0.68;88.70;100073.41;106318;1260;125151;-78
2023/11/26 01:13:39;;;;;;;;;;;;;;;-0.68;88.66;100077.52;108056;1260;73091;-79
2023/11/26 01:16:06;;;;;;;;;;;;;;;-0.66;88.77;100080.25;106361;1262;124833;-79
2023/11/26 01:18:33;;;;;;;;;;;;;;;-0.62;89.65;100091.30;106330;1261;72762;-79
2023/11/26 01:20:59;;;;;;;;;;;;;;;-0.56;90.21;100095.97;106626;1260;61232;-78
2023/11/26 01:23:27;;;;;;;;;;;;;;;-0.50;90.52;100097.70;107534;1260;125674;-78
2023/11/26 01:25:54;;;;;;;;;;;;;;;-0.44;90.59;100094.66;106214;1260;75601;-79
2023/11/26 01:28:20;;;;;;;;;;;;;;;-0.42;90.61;100094.42;106191;1260;124969;-78
2023/11/26 01:30:47;;;;;;;;;;;;;;;-0.41;90.18;100098.45;106327;1261;72916;-79
2023/11/26 01:33:14;;;;;;;;;;;;;;;-0.39;89.89;100102.13;106170;1261;124967;-79
2023/11/26 01:35:41;;;;;;;;;;;;;;;-0.42;89.80;100100.77;106495;1261;61170;-79
2023/11/26 01:38:08;;;;;;;;;;;;;;;-0.47;89.41;100098.95;106550;1263;74718;-80
2023/11/26 01:40:37;;;;;;;;;;;;;;;-0.51;89.27;100100.08;106390;1260;124896;-79
2023/11/26 01:43:04;;;;;;;;;;;;;;;-0.50;89.54;100111.30;106262;1261;72376;-80
2023/11/26 01:45:31;;;;;;;;;;;;;;;-0.46;89.76;100107.06;106315;1264;124747;-80
2023/11/26 01:47:58;;;;;;;;;;;;;;;-0.41;89.63;100108.58;106491;1261;61312;-79
2023/11/26 01:50:24;;;;;;;;;;;;;;;-0.37;89.69;100113.83;106416;1259;72626;-79
2023/11/26 01:52:52;;;;;;;;;;;;;;;-0.33;89.72;100114.55;106433;1259;124771;-79
2023/11/26 01:55:20;;;;;;;;;;;;;;;-0.29;89.65;100109.45;106349;1264;71202;-79
2023/11/26 01:57:47;;;;;;;;;;;;;;;-0.26;89.66;100115.46;106265;1259;125605;-79
2023/11/26 02:00:16;;;;;;;;;;;;;;;-0.24;89.48;100124.23;106347;1263;61382;-79
2023/11/26 02:02:43;;;;;;;;;;;;;;;-0.22;89.62;100126.75;106247;1259;74670;-78
2023/11/26 02:05:11;;;;;;;;;;;;;;;-0.19;89.59;100138.45;105827;1264;125192;-79
2023/11/26 02:07:38;;;;;;;;;;;;;;;-0.21;89.21;100142.33;106511;1259;73970;-80
2023/11/26 02:10:06;;;;;;;;;;;;;;;-0.23;89.41;100140.18;106395;1259;125442;-80
2023/11/26 02:12:33;;;;;;;;;;;;;;;-0.20;89.66;100146.02;106511;1263;61253;-79
2023/11/26 02:15:00;;;;;;;;;;;;;;;-0.20;89.44;100149.83;106419;1259;74724;-79
2023/11/26 02:17:27;;;;;;;;;;;;;;;-0.19;89.39;100144.34;106322;1263;124732;-81
2023/11/26 02:19:55;;;;;;;;;;;;;;;-0.17;89.54;100137.20;106450;1263;72782;-80
2023/11/26 02:22:22;;;;;;;;;;;;;;;-0.13;89.79;100133.64;106295;1263;126939;-80
2023/11/26 02:24:49;;;;;;;;;;;;;;;-0.10;89.90;100132.98;106378;1259;61386;-79
2023/11/26 02:27:16;;;;;;;;;;;;;;;-0.08;89.75;100133.74;106392;1262;124791;-80
2023/11/26 02:29:43;;;;;;;;;;;;;;;-0.11;89.70;100135.14;106507;1259;65949;-80
2023/11/26 02:32:09;;;;;;;;;;;;;;;-0.11;89.64;100145.67;106492;1263;72406;-80
2023/11/26 02:34:36;;;;;;;;;;;;;;;-0.09;89.73;100148.20;106408;1259;124740;-80
2023/11/26 02:37:03;;;;;;;;;;;;;;;-0.07;89.71;100144.67;106621;1259;61354;-79
2023/11/26 02:39:30;;;;;;;;;;;;;;;-0.06;89.82;100142.13;106391;1259;124871;-80
2023/11/26 02:41:58;;;;;;;;;;;;;;;-0.07;89.63;100149.55;106233;1259;68941;-80
2023/11/26 02:44:25;;;;;;;;;;;;;;;-0.09;89.53;100147.52;106326;1264;72719;-80
2023/11/26 02:46:52;;;;;;;;;;;;;;;-0.10;89.53;100143.63;106215;1262;123715;-80
2023/11/26 02:49:19;;;;;;;;;;;;;;;-0.14;89.58;100143.39;106504;1259;61285;-79
2023/11/26 02:51:46;;;;;;;;;;;;;;;-0.18;89.35;100146.64;106342;1260;125029;-79
2023/11/26 02:54:13;;;;;;;;;;;;;;;-0.18;89.40;100148.52;106417;1259;65285;-79
2023/11/26 02:56:43;;;;;;;;;;;;;;;-0.16;89.45;100149.83;106488;1259;72221;-79
2023/11/26 02:59:10;;;;;;;;;;;;;;;-0.14;89.25;100143.55;106473;1261;125801;-79
2023/11/26 03:01:37;;;;;;;;;;;;;;;-0.11;89.33;100143.90;106438;1263;61322;-79
2023/11/26 03:04:06;;;;;;;;;;;;;;;-0.10;89.47;100139.86;106325;1259;124781;-80
2023/11/26 03:06:33;;;;;;;;;;;;;;;-0.09;89.42;100139.75;106468;1259;64837;-81
2023/11/26 03:09:00;;;;;;;;;;;;;;;-0.09;89.38;100136.67;106297;1264;71869;-80
2023/11/26 03:14:16;;;;;;;;;;;;;;;-0.21;88.98;100136.48;106402;1259;61214;-82
2023/11/26 03:16:44;;;;;;;;;;;;;;;-0.31;88.81;100136.77;106235;1259;124813;-81
2023/11/26 03:19:14;;;;;;;;;;;;;;;-0.42;88.54;100136.95;106459;1260;66607;-82
2023/11/26 03:21:43;;;;;;;;;;;;;;;-0.55;88.50;100136.55;106409;1267;126444;-82
2023/11/26 03:24:10;;;;;;;;;;;;;;;-0.67;88.47;100137.72;106640;1259;61351;-81
2023/11/26 03:26:39;;;;;;;;;;;;;;;-0.79;88.62;100136.67;106449;1263;61180;-81
2023/11/26 03:29:06;;;;;;;;;;;;;;;-0.89;88.65;100138.13;106342;1259;124632;-80
2023/11/26 03:31:33;;;;;;;;;;;;;;;-0.99;88.67;100139.59;106512;1259;65159;-80
2023/11/26 03:34:04;;;;;;;;;;;;;;;-1.07;88.67;100140.99;106371;1259;125261;-81
2023/11/26 03:36:31;;;;;;;;;;;;;;;-1.14;88.79;100145.73;106262;1262;61210;-81
2023/11/26 03:38:58;;;;;;;;;;;;;;;-1.21;88.87;100151.19;106405;1259;61360;-81
2023/11/26 03:41:25;;;;;;;;;;;;;;;-1.27;88.86;100153.02;106233;1260;125014;-81
2023/11/26 03:43:51;;;;;;;;;;;;;;;-1.32;88.99;100157.20;106472;1259;65171;-80
2023/11/26 03:46:18;;;;;;;;;;;;;;;-1.35;89.15;100162.16;106456;1259;124590;-81
2023/11/26 03:48:45;;;;;;;;;;;;;;;-1.39;89.26;100164.86;106525;1259;61373;-81
2023/11/26 03:51:20;;;;;;;;;;;;;;;-1.43;89.45;100164.64;106446;1259;124983;-81
2023/11/26 03:53:47;;;;;;;;;;;;;;;-1.46;89.41;100168.36;106363;1259;74804;-81
2023/11/26 03:56:14;;;;;;;;;;;;;;;-1.50;89.50;100169.67;106359;1259;66648;-81
2023/11/26 03:58:41;;;;;;;;;;;;;;;-1.54;89.42;100174.02;106333;1261;125502;-80
2023/11/26 04:01:08;;;;;;;;;;;;;;;-1.58;89.41;100178.11;106550;1260;61365;-81
2023/11/26 04:03:34;;;;;;;;;;;;;;;-1.62;89.23;100179.24;106418;1264;124250;-80
2023/11/26 04:06:01;;;;;;;;;;;;;;;-1.66;89.48;100181.85;106456;1259;73935;-81
2023/11/26 04:08:28;;;;;;;;;;;;;;;-1.70;89.32;100185.73;106326;1259;66323;-81
2023/11/26 04:10:55;;;;;;;;;;;;;;;-1.74;89.33;100186.02;106268;1260;125096;-80
2023/11/26 04:13:22;;;;;;;;;;;;;;;-1.76;89.35;100190.87;106503;1262;61126;-80
2023/11/26 04:15:55;;;;;;;;;;;;;;;-1.79;89.39;100192.43;106261;1260;125061;-80
2023/11/26 04:18:21;;;;;;;;;;;;;;;-1.82;89.32;100192.39;108882;1259;74178;-80
2023/11/26 04:20:48;;;;;;;;;;;;;;;-1.83;89.18;100199.22;108587;1262;66682;-80
2023/11/26 04:23:15;;;;;;;;;;;;;;;-1.85;89.10;100206.48;106312;1259;124744;-81
2023/11/26 04:25:42;;;;;;;;;;;;;;;-1.87;88.90;100208.77;106474;1259;61195;-81
2023/11/26 04:28:09;;;;;;;;;;;;;;;-1.88;88.92;100212.45;106434;1259;125259;-81
2023/11/26 04:30:36;;;;;;;;;;;;;;;-1.90;88.89;100212.84;106463;1264;74851;-81
2023/11/26 04:33:02;;;;;;;;;;;;;;;-1.93;88.77;100216.26;106398;1259;65119;-80
2023/11/26 04:35:29;;;;;;;;;;;;;;;-1.96;88.67;100216.06;106322;1259;124669;-81
2023/11/26 04:37:56;;;;;;;;;;;;;;;-1.99;88.80;100216.38;106403;1259;61331;-80
2023/11/26 04:40:23;;;;;;;;;;;;;;;-2.03;88.79;100217.86;106401;1259;124668;-82
2023/11/26 04:42:50;;;;;;;;;;;;;;;-2.04;88.75;100216.73;106523;1262;73051;-81
2023/11/26 04:45:17;;;;;;;;;;;;;;;-2.06;88.63;100220.03;106445;1259;125154;-80
2023/11/26 04:47:43;;;;;;;;;;;;;;;-2.07;88.74;100219.11;106444;1259;72783;-80
2023/11/26 04:50:10;;;;;;;;;;;;;;;-2.07;88.87;100221.16;106554;1259;61183;-80
2023/11/26 04:52:37;;;;;;;;;;;;;;;-2.05;89.10;100224.05;106430;1260;124944;-82
2023/11/26 04:55:03;;;;;;;;;;;;;;;-2.03;88.91;100225.39;106351;1260;73471;-80
2023/11/26 04:57:30;;;;;;;;;;;;;;;-2.01;89.12;100227.39;106368;1263;124953;-80
2023/11/26 04:59:57;;;;;;;;;;;;;;;-2.01;88.99;100229.46;106261;1259;71387;-80
2023/11/26 05:02:23;;;;;;;;;;;;;;;-2.01;88.93;100236.54;106340;1262;61250;-80
2023/11/26 05:04:51;;;;;;;;;;;;;;;-2.01;88.99;100236.54;106333;1259;124718;-80
2023/11/26 05:07:19;;;;;;;;;;;;;;;-2.01;88.95;100239.98;106405;1261;74303;-81
2023/11/26 05:09:45;;;;;;;;;;;;;;;-2.01;88.90;100237.52;106391;1261;124960;-80
2023/11/26 05:12:13;;;;;;;;;;;;;;;-2.02;88.91;100237.52;106384;1259;71136;-81
2023/11/26 05:14:39;;;;;;;;;;;;;;;-2.02;88.97;100239.58;106396;1263;61301;-80
2023/11/26 05:17:06;;;;;;;;;;;;;;;-2.03;88.86;100244.85;106394;1259;125292;-79
2023/11/26 05:19:33;;;;;;;;;;;;;;;-2.04;88.85;100247.69;106424;1260;73400;-80
2023/11/26 05:21:59;;;;;;;;;;;;;;;-2.07;88.64;100249.20;106156;1265;124699;-81
2023/11/26 05:24:26;;;;;;;;;;;;;;;-2.10;88.66;100247.40;106280;1259;73789;-80
2023/11/26 05:26:53;;;;;;;;;;;;;;;-2.14;88.60;100248.88;106314;1260;61298;-80
2023/11/26 05:29:19;;;;;;;;;;;;;;;-2.16;88.63;100250.31;106271;1259;124573;-79
2023/11/26 05:31:47;;;;;;;;;;;;;;;-2.18;88.70;100257.95;106370;1259;76071;-80
2023/11/26 05:34:13;;;;;;;;;;;;;;;-2.18;88.59;100254.84;106217;1259;124978;-80
2023/11/26 05:36:40;;;;;;;;;;;;;;;-2.18;88.65;100259.11;106361;1262;71708;-80
2023/11/26 05:39:08;;;;;;;;;;;;;;;-2.20;88.61;100261.27;106362;1259;59683;-80
2023/11/26 05:41:35;;;;;;;;;;;;;;;-2.19;88.80;100264.20;106554;1259;61264;-80
2023/11/26 05:44:01;;;;;;;;;;;;;;;-2.19;88.66;100263.20;106411;1259;74415;-80
2023/11/26 05:46:28;;;;;;;;;;;;;;;-2.19;88.62;100269.02;106357;1259;125263;-79
2023/11/26 05:48:55;;;;;;;;;;;;;;;-2.22;88.35;100270.40;106485;1259;71403;-79
2023/11/26 05:51:22;;;;;;;;;;;;;;;-2.25;88.33;100271.05;106464;1261;124952;-79
2023/11/26 05:53:49;;;;;;;;;;;;;;;-2.29;88.23;100273.70;106293;1259;59705;-82
2023/11/26 05:56:18;;;;;;;;;;;;;;;-2.32;88.18;100276.54;106409;1259;73406;-80
2023/11/26 05:58:47;;;;;;;;;;;;;;;-2.35;88.05;100279.27;106367;1259;124529;-80
2023/11/26 06:01:20;;;;;;;;;;;;;;;-2.38;88.15;100282.03;106438;1259;72696;-81
2023/11/26 06:03:47;;;;;;;;;;;;;;;-2.39;88.23;100282.96;106256;1259;125093;-79
2023/11/26 06:06:14;;;;;;;;;;;;;;;-2.41;88.11;100281.58;105983;1259;61603;-80
2023/11/26 06:08:41;;;;;;;;;;;;;;;-2.43;88.16;100282.32;106411;1259;74386;-79
2023/11/26 06:11:08;;;;;;;;;;;;;;;-2.46;88.05;100283.16;106448;1259;124602;-80
2023/11/26 06:13:35;;;;;;;;;;;;;;;-2.48;88.07;100284.95;106563;1259;72890;-80
2023/11/26 06:16:01;;;;;;;;;;;;;;;-2.49;88.12;100289.33;106374;1259;124689;-80
2023/11/26 06:18:28;;;;;;;;;;;;;;;-2.50;88.20;100289.40;106452;1264;61487;-81
2023/11/26 06:20:54;;;;;;;;;;;;;;;-2.52;88.20;100294.26;106499;1264;73840;-80
2023/11/26 06:23:21;;;;;;;;;;;;;;;-2.51;88.01;100294.64;106270;1259;124757;-79
2023/11/26 06:25:48;;;;;;;;;;;;;;;-2.52;88.07;100292.85;106383;1265;72803;-80
2023/11/26 06:28:14;;;;;;;;;;;;;;;-2.53;88.05;100296.41;106311;1260;125354;-80
2023/11/26 06:30:42;;;;;;;;;;;;;;;-2.54;88.09;100301.02;106288;1261;61370;-80
2023/11/26 06:33:08;;;;;;;;;;;;;;;-2.55;87.99;100301.98;106504;1259;75872;-81
2023/11/26 06:35:35;;;;;;;;;;;;;;;-2.54;88.10;100305.65;106310;1259;66232;-79
2023/11/26 06:38:02;;;;;;;;;;;;;;;-2.52;88.08;100306.29;106271;1259;70200;-79
2023/11/26 06:40:29;;;;;;;;;;;;;;;-2.49;88.22;100306.80;106199;1259;124987;-79
2023/11/26 06:42:56;;;;;;;;;;;;;;;-2.49;88.16;100304.09;106292;1259;59335;-78
2023/11/26 06:45:22;;;;;;;;;;;;;;;-2.47;88.18;100309.23;105996;1259;125444;-78
2023/11/26 06:47:49;;;;;;;;;;;;;;;-2.44;88.32;100309.44;106303;1265;66331;-80
2023/11/26 06:50:16;;;;;;;;;;;;;;;-2.41;88.29;100306.02;106352;1260;74011;-80
2023/11/26 06:52:43;;;;;;;;;;;;;;;-2.38;88.09;100306.59;106424;1259;124704;-80
2023/11/26 06:55:10;;;;;;;;;;;;;;;-2.35;88.15;100311.59;106473;1261;61806;-77
2023/11/26 06:57:37;;;;;;;;;;;;;;;-2.32;88.13;100306.25;105708;1264;124835;-79
2023/11/26 07:00:06;;;;;;;;;;;;;;;-2.28;88.26;100304.29;105786;1264;66256;-79
2023/11/26 07:02:33;;;;;;;;;;;;;;;-2.24;87.98;100305.80;105762;1265;71429;-78
2023/11/26 07:05:00;;;;;;;;;;;;;;;-2.22;88.15;100304.61;105625;1259;125308;-77
2023/11/26 07:07:26;;;;;;;;;;;;;;;-2.17;87.83;100307.54;105814;1259;61271;-78
2023/11/26 07:09:53;;;;;;;;;;;;;;;-2.09;87.88;100305.26;105749;1259;124907;-78
2023/11/26 07:12:20;;;;;;;;;;;;;;;-2.00;87.91;100309.65;105800;1265;66030;-77
2023/11/26 07:14:46;;;;;;;;;;;;;;;-1.90;88.02;100313.12;105546;1259;73553;-78
2023/11/26 07:17:13;;;;;;;;;;;;;;;-1.73;88.15;100318.54;105658;1263;125383;-78
2023/11/26 07:19:40;;;;;;;;;;;;;;;-1.49;88.39;100309.27;105693;1259;59346;-79
2023/11/26 07:22:07;;;;;;;;;;;;;;;-1.21;88.71;100310.40;106283;1259;124961;-78
2023/11/26 07:24:34;;;;;;;;;;;;;;;-0.93;88.87;100312.17;106383;1262;64859;-78
2023/11/26 07:27:02;;;;;;;;;;;;;;;-0.69;88.58;100312.50;106476;1260;72773;-78
2023/11/26 07:29:31;;;;;;;;;;;;;;;-0.48;88.44;100316.89;106193;1259;124699;-78
2023/11/26 07:31:59;;;;;;;;;;;;;;;-0.30;88.25;100317.33;106356;1259;61179;-78
2023/11/26 07:34:29;;;;;;;;;;;;;;;-0.15;88.15;100314.44;106295;1259;124634;-80
2023/11/26 07:37:00;;;;;;;;;;;;;;;-0.05;87.65;100313.33;106419;1263;66200;-78
2023/11/26 07:39:28;;;;;;;;;;;;;;;0.03;87.54;100315.83;105691;1262;126128;-80
2023/11/26 07:42:03;;;;;;;;;;;;;;;0.11;87.30;100314.61;106491;1259;61274;-81
2023/11/26 07:44:29;;;;;;;;;;;;;;;0.18;87.05;100312.07;106628;1259;61202;-79
2023/11/26 07:46:56;;;;;;;;;;;;;;;0.23;86.89;100314.31;106443;1259;125142;-77
2023/11/26 07:49:23;;;;;;;;;;;;;;;0.28;86.68;100314.23;106669;1259;65317;-78
2023/11/26 07:51:49;;;;;;;;;;;;;;;0.35;86.61;100316.37;106454;1260;125397;-79
2023/11/26 07:54:16;;;;;;;;;;;;;;;0.44;86.56;100313.95;106604;1259;61151;-79
2023/11/26 07:56:42;;;;;;;;;;;;;;;0.48;86.59;100312.65;106442;1259;61273;-78
2023/11/26 07:59:09;;;;;;;;;;;;;;;0.53;86.31;100313.64;106318;1265;123952;-78
2023/11/26 08:01:36;;;;;;;;;;;;;;;0.56;86.07;100314.52;106142;1263;65110;-78
2023/11/26 08:04:03;;;;;;;;;;;;;;;0.60;86.17;100313.48;105622;1259;124145;-79
2023/11/26 08:06:30;;;;;;;;;;;;;;;0.64;86.13;100307.88;106384;1260;59375;-79
2023/11/26 08:08:57;;;;;;;;;;;;;;;0.71;86.01;100306.01;106437;1263;59577;-79
2023/11/26 08:11:24;;;;;;;;;;;;;;;0.78;85.89;100301.24;106328;1264;124906;-80
2023/11/26 08:13:51;;;;;;;;;;;;;;;0.87;86.02;100302.79;106437;1262;66667;-80
2023/11/26 08:16:18;;;;;;;;;;;;;;;0.95;85.94;100304.30;106298;1264;124521;-79
2023/11/26 08:18:45;;;;;;;;;;;;;;;1.02;85.76;100303.44;106303;1263;61376;-81
2023/11/26 08:21:11;;;;;;;;;;;;;;;1.14;85.80;100304.80;106244;1260;125217;-82
2023/11/26 08:23:50;;;;;;;;;;;;;;;1.29;85.78;100307.00;106671;1264;74408;-86
2023/11/26 08:26:17;;;;;;;;;;;;;;;1.39;85.62;100310.86;106524;1259;65216;-82
2023/11/26 08:28:43;;;;;;;;;;;;;;;1.48;85.36;100309.79;106430;1259;124452;-82
2023/11/26 08:31:15;;;;;;;;;;;;;;;1.52;85.06;100306.33;106374;1258;60871;-82
2023/11/26 08:33:44;;;;;;;;;;;;;;;1.54;84.96;100307.70;106345;1259;124999;-82
2023/11/26 08:36:11;;;;;;;;;;;;;;;1.59;84.92;100304.80;106282;1266;75542;-82
2023/11/26 08:38:41;;;;;;;;;;;;;;;1.63;84.77;100305.20;106507;1260;66842;-82
2023/11/26 08:41:10;;;;;;;;;;;;;;;1.63;84.38;100302.77;106219;1260;124401;-82
2023/11/26 08:43:41;;;;;;;;;;;;;;;1.68;84.47;100301.48;106542;1267;61263;-82
2023/11/26 08:46:09;;;;;;;;;;;;;;;1.77;84.49;100309.05;106623;1264;124570;-90
2023/11/26 08:48:36;;;;;;;;;;;;;;;1.84;84.40;100305.81;106403;1264;74654;-89
2023/11/26 08:51:04;;;;;;;;;;;;;;;1.88;84.25;100307.40;106332;1265;66194;-88
2023/11/26 08:53:32;;;;;;;;;;;;;;;1.94;84.07;100307.70;106273;1260;124097;-88
2023/11/26 08:56:00;;;;;;;;;;;;;;;1.96;83.96;100311.98;106421;1263;59569;-87
2023/11/26 08:58:27;;;;;;;;;;;;;;;2.01;83.94;100316.86;106357;1260;124635;-88
2023/11/26 09:00:56;;;;;;;;;;;;;;;2.02;83.73;100317.83;106513;1259;74656;-90
2023/11/26 09:03:22;;;;;;;;;;;;;;;2.02;83.58;100325.79;106365;1263;124110;-86
2023/11/26 09:05:49;;;;;;;;;;;;;;;2.01;83.27;100330.23;106340;1261;70820;-88
2023/11/26 09:08:16;;;;;;;;;;;;;;;2.01;83.33;100338.01;106541;1264;61370;-88
2023/11/26 09:10:43;;;;;;;;;;;;;;;1.99;83.07;100342.09;106460;1264;124517;-87
2023/11/26 09:13:12;;;;;;;;;;;;;;;1.96;83.03;100341.02;106260;1264;74710;-81
2023/11/26 09:15:41;;;;;;;;;;;;;;;1.98;82.93;100345.28;106328;1264;125163;-78
2023/11/26 09:18:09;;;;;;;;;;;;;;;1.97;82.79;100345.61;105704;1266;72768;-78
2023/11/26 09:20:36;;;;;;;;;;;;;;;1.99;82.92;100348.94;105710;1263;61251;-80
2023/11/26 09:23:07;;;;;;;;;;;;;;;1.99;82.79;100343.61;106046;1259;222530;-78
2023/11/26 09:25:34;;;;;;;;;;;;;;;2.03;82.64;100346.27;106280;1264;74284;-79
2023/11/26 09:28:01;;;;;;;;;;;;;;;2.05;82.35;100347.41;106209;1264;124422;-79
2023/11/26 09:30:27;;;;;;;;;;;;;;;2.04;82.36;100345.29;106143;1259;71490;-84
2023/11/26 09:32:54;;;;;;;;;;;;;;;2.07;82.37;100347.82;106272;1264;59982;-85
2023/11/26 09:35:22;;;;;;;;;;;;;;;2.13;82.46;100348.48;106571;1263;124139;-85
2023/11/26 09:37:49;;;;;;;;;;;;;;;2.21;82.42;100350.99;106878;1262;73371;-79
2023/11/26 09:40:16;;;;;;;;;;;;;;;2.29;82.49;100344.51;106191;1263;124486;-78
2023/11/26 09:42:44;;;;;;;;;;;;;;;2.38;82.20;100350.13;106462;1263;72781;-78
2023/11/26 09:45:12;;;;;;;;;;;;;;;2.36;81.86;100348.64;106403;1263;124323;-79
2023/11/26 09:47:38;;;;;;;;;;;;;;;2.36;81.52;100346.38;106555;1263;61226;-80
2023/11/26 09:50:06;;;;;;;;;;;;;;;2.33;81.46;100348.14;106320;1265;74631;-81
2023/11/26 09:52:33;;;;;;;;;;;;;;;2.32;81.52;100349.34;106657;1261;125279;-79
2023/11/26 09:55:02;;;;;;;;;;;;;;;2.40;81.62;100350.23;106155;1263;72715;-79
2023/11/26 09:57:29;;;;;;;;;;;;;;;2.43;81.51;100346.42;106610;1261;125212;-79
2023/11/26 09:59:56;;;;;;;;;;;;;;;2.48;81.43;100347.20;106809;1264;61257;-79
2023/11/26 10:02:23;;;;;;;;;;;;;;;2.58;81.47;100343.16;106712;1263;74615;-81
2023/11/26 10:04:50;;;;;;;;;;;;;;;2.66;81.28;100344.61;106475;1261;124492;-82
2023/11/26 10:07:18;;;;;;;;;;;;;;;2.67;81.10;100345.39;106579;1273;71228;-81
2023/11/26 10:10:03;;;;;;;;;;;;;;;2.73;81.21;100351.88;106304;1260;124900;-78
2023/11/26 10:12:30;;;;;;;;;;;;;;;2.82;80.95;100348.55;107460;1264;62864;-78
2023/11/26 10:15:04;;;;;;;;;;;;;;;2.88;80.93;100348.30;106522;1273;74744;-78
2023/11/26 10:17:31;;;;;;;;;;;;;;;2.96;80.99;100342.98;108234;1264;124386;-81
2023/11/26 10:20:17;;;;;;;;;;;;;;;3.04;80.92;100344.91;106551;1261;71368;-80
2023/11/26 10:22:44;;;;;;;;;;;;;;;3.08;80.60;100344.77;106334;1264;124308;-81
2023/11/26 10:25:11;;;;;;;;;;;;;;;3.10;80.49;100345.41;106496;1259;61429;-81
2023/11/26 10:27:38;;;;;;;;;;;;;;;3.13;80.34;100346.94;106420;1262;124614;-79
2023/11/26 10:30:08;;;;;;;;;;;;;;;3.18;80.29;100347.66;106460;1259;64704;-80
2023/11/26 10:33:11;;;;;;;;;;;;;;;3.21;80.02;100350.55;106463;1264;72484;-80
2023/11/26 10:35:45;;;;;;;;;;;;;;;3.15;79.63;100347.69;105690;1267;59944;-82
2023/11/26 10:38:12;;;;;;;;;;;;;;;3.11;79.56;100343.36;105809;1267;61236;-79
2023/11/26 10:40:39;;;;;;;;;;;;;;;3.10;79.55;100342.09;105681;1271;124013;-79
2023/11/26 10:43:06;;;;;;;;;;;;;;;3.12;79.58;100343.06;105728;1273;65310;-80
2023/11/26 10:45:33;;;;;;;;;;;;;;;3.16;79.54;100345.66;105688;1273;124205;-80
2023/11/26 10:48:10;;;;;;;;;;;;;;;3.18;79.66;100343.70;105429;1270;59297;-80
2023/11/26 10:50:42;;;;;;;;;;;;;;;3.18;79.43;100339.52;105395;1273;61436;-78
2023/11/26 10:53:15;;;;;;;;;;;;;;;3.12;79.25;100337.33;105049;1266;125554;-80
2023/11/26 10:55:42;;;;;;;;;;;;;;;3.08;79.31;100337.85;105798;1273;65040;-80
2023/11/26 10:58:18;;;;;;;;;;;;;;;3.10;79.40;100336.73;105687;1270;125054;-78
2023/11/26 11:00:52;;;;;;;;;;;;;;;3.15;79.40;100340.25;105861;1267;61422;-78
2023/11/26 11:03:19;;;;;;;;;;;;;;;3.18;79.49;100340.76;105598;1267;124712;-78
2023/11/26 11:05:47;;;;;;;;;;;;;;;3.23;79.52;100340.14;105842;1273;73880;-78
2023/11/26 11:08:17;;;;;;;;;;;;;;;3.29;79.32;100343.52;105762;1272;65479;-79
2023/11/26 11:10:44;;;;;;;;;;;;;;;3.31;79.12;100338.41;105936;1265;124173;-78
2023/11/26 11:13:17;;;;;;;;;;;;;;;3.28;79.13;100336.73;106174;1260;61883;-79
2023/11/26 11:15:44;;;;;;;;;;;;;;;3.25;78.94;100335.73;106257;1259;124042;-78
2023/11/26 11:18:26;;;;;;;;;;;;;;;3.29;79.11;100336.91;106338;1264;74170;-79
2023/11/26 11:21:05;;;;;;;;;;;;;;;3.27;78.87;100340.13;106416;1261;66305;-78
2023/11/26 11:23:32;;;;;;;;;;;;;;;3.20;78.82;100341.02;107919;1265;123848;-78
2023/11/26 11:26:00;;;;;;;;;;;;;;;3.19;78.89;100344.95;105688;1261;61244;-83
2023/11/26 11:28:43;;;;;;;;;;;;;;;3.16;78.77;100345.66;106168;1261;124529;-83
2023/11/26 11:31:19;;;;;;;;;;;;;;;3.13;78.68;100349.50;106139;1260;74686;-83
2023/11/26 11:33:55;;;;;;;;;;;;;;;3.09;78.64;100346.89;106119;1265;124230;-83
2023/11/26 11:36:44;;;;;;;;;;;;;;;3.12;78.97;100350.86;106521;1264;72726;-80
2023/11/26 11:39:14;;;;;;;;;;;;;;;3.16;78.89;100351.05;106327;1264;124932;-81
2023/11/26 11:41:59;;;;;;;;;;;;;;;3.17;78.83;100350.39;105863;1260;61267;-83
2023/11/26 11:44:29;;;;;;;;;;;;;;;3.17;78.77;100354.92;106354;1261;74440;-83
2023/11/26 11:46:56;;;;;;;;;;;;;;;3.21;78.71;100353.52;106339;1260;124774;-82
2023/11/26 11:49:28;;;;;;;;;;;;;;;3.24;78.90;100351.79;106367;1261;72705;-82
2023/11/26 11:51:55;;;;;;;;;;;;;;;3.25;78.78;100351.16;106352;1260;124049;-84
2023/11/26 11:54:40;;;;;;;;;;;;;;;3.26;78.76;100349.98;106354;1259;61299;-82
2023/11/26 11:57:13;;;;;;;;;;;;;;;3.27;78.65;100347.75;106501;1261;73207;-83
2023/11/26 11:59:43;;;;;;;;;;;;;;;3.25;78.63;100346.81;106474;1260;66236;-84
2023/11/26 12:02:10;;;;;;;;;;;;;;;3.26;78.77;100348.58;106377;1264;71328;-84
2023/11/26 12:04:46;;;;;;;;;;;;;;;3.22;78.47;100351.70;106232;1261;123299;-84
2023/11/26 12:07:17;;;;;;;;;;;;;;;3.11;78.12;100348.88;106540;1260;60192;-83
2023/11/26 12:09:44;;;;;;;;;;;;;;;3.02;78.29;100349.16;106391;1259;123939;-84
2023/11/26 12:12:10;;;;;;;;;;;;;;;2.96;78.24;100347.15;106287;1264;64930;-83
2023/11/26 12:14:37;;;;;;;;;;;;;;;2.92;78.37;100349.23;106493;1260;72180;-83
2023/11/26 12:17:06;;;;;;;;;;;;;;;2.89;78.41;100351.84;106326;1261;124101;-84
2023/11/26 12:19:34;;;;;;;;;;;;;;;2.89;78.57;100351.28;106549;1264;61291;-86
2023/11/26 12:22:04;;;;;;;;;;;;;;;2.86;78.45;100354.79;106355;1260;124072;-86
2023/11/26 12:24:31;;;;;;;;;;;;;;;2.85;78.59;100352.65;106479;1261;67959;-87
2023/11/26 12:26:58;;;;;;;;;;;;;;;2.84;78.60;100352.96;106423;1260;72435;-86
2023/11/26 12:29:28;;;;;;;;;;;;;;;2.82;78.56;100349.41;106161;1260;124665;-86
2023/11/26 12:32:00;;;;;;;;;;;;;;;2.83;78.83;100354.48;106375;1259;59998;-87